Time;durP1;ratioP1;P1;durP2;ratioP2;P2;SDS_P1;SDS_P2;PMS_P1;PMS_P2;Temp;Humidity;BMP_temperature;BMP_pressure;BME280_temperature;BME280_humidity;BME280_pressure;Samples;Min_cycle;Max_cycle;Signal;HPM_P1;HPM_P2
2023/09/22 00:02:02;;;;;;;16.10;8.75;;;14.20;99.90;;;;;;4950758;28;20399;-73
2023/09/22 00:04:30;;;;;;;19.80;10.90;;;14.20;99.90;;;;;;4917914;28;239641;-73
2023/09/22 00:06:56;;;;;;;18.08;10.27;;;14.20;99.90;;;;;;4947415;28;20429;-73
2023/09/22 00:09:22;;;;;;;20.00;11.45;;;14.20;99.90;;;;;;4909625;28;56691;-73
2023/09/22 00:11:48;;;;;;;20.00;11.90;;;14.20;99.90;;;;;;4955024;28;20536;-71
2023/09/22 00:14:15;;;;;;;23.45;13.90;;;14.20;99.90;;;;;;4914952;28;158694;-73
2023/09/22 00:16:41;;;;;;;20.83;13.52;;;14.20;99.90;;;;;;4952052;28;20149;-73
2023/09/22 00:19:07;;;;;;;26.02;15.50;;;14.30;99.90;;;;;;4918470;28;125088;-72
2023/09/22 00:21:34;;;;;;;27.55;15.60;;;14.30;99.90;;;;;;4949744;28;20055;-73
2023/09/22 00:24:01;;;;;;;26.83;16.15;;;14.20;99.90;;;;;;4910971;28;98026;-72
2023/09/22 00:26:27;;;;;;;24.45;15.93;;;14.20;99.90;;;;;;4949792;28;20382;-73
2023/09/22 00:28:53;;;;;;;23.73;15.48;;;14.30;99.90;;;;;;4909913;28;28134;-72
2023/09/22 00:31:19;;;;;;;29.85;17.13;;;14.30;99.90;;;;;;4946128;28;20810;-72
2023/09/22 00:33:45;;;;;;;26.75;17.10;;;14.30;99.90;;;;;;4908799;28;149693;-72
2023/09/22 00:36:14;;;;;;;25.35;16.63;;;14.30;99.90;;;;;;4948771;28;20059;-73
2023/09/22 00:38:41;;;;;;;25.40;16.85;;;14.30;99.90;;;;;;4911748;28;20526;-72
2023/09/22 00:41:07;;;;;;;26.50;17.10;;;14.30;99.90;;;;;;4941818;28;20055;-72
2023/09/22 00:43:33;;;;;;;26.73;17.80;;;14.30;99.90;;;;;;4917943;28;20047;-72
2023/09/22 00:46:00;;;;;;;29.38;19.40;;;14.30;99.90;;;;;;4954228;28;20116;-72
2023/09/22 00:48:34;;;;;;;30.88;19.45;;;14.30;99.90;;;;;;4913531;28;61565;-73
2023/09/22 00:51:01;;;;;;;28.77;19.42;;;14.30;99.90;;;;;;4946210;28;20063;-73
2023/09/22 00:53:33;;;;;;;27.88;18.75;;;14.40;99.90;;;;;;4893836;28;92513;-73
2023/09/22 00:56:00;;;;;;;30.55;20.08;;;14.40;99.90;;;;;;4939518;28;20063;-72
2023/09/22 00:58:26;;;;;;;29.90;19.27;;;14.40;99.90;;;;;;4918830;28;74303;-72
2023/09/22 01:00:53;;;;;;;32.33;19.75;;;14.30;99.90;;;;;;4949109;28;20073;-72
2023/09/22 01:03:19;;;;;;;31.25;20.13;;;14.40;99.90;;;;;;4909458;28;205613;-72
2023/09/22 01:05:46;;;;;;;32.97;19.85;;;14.40;99.90;;;;;;4946382;28;20055;-73
2023/09/22 01:08:12;;;;;;;27.85;19.92;;;14.30;99.90;;;;;;4911317;28;53013;-73
2023/09/22 01:10:40;;;;;;;29.85;20.27;;;14.30;99.90;;;;;;4961365;28;20054;-73
2023/09/22 01:13:06;;;;;;;28.95;20.35;;;14.40;99.90;;;;;;4906369;28;205038;-72
2023/09/22 01:15:34;;;;;;;29.98;20.38;;;14.40;99.90;;;;;;4962592;28;20051;-72
2023/09/22 01:18:01;;;;;;;34.10;21.75;;;14.40;99.90;;;;;;4906948;28;180968;-72
2023/09/22 01:20:27;;;;;;;32.20;20.27;;;14.40;99.90;;;;;;4957435;28;20051;-73
2023/09/22 01:22:53;;;;;;;28.83;20.40;;;14.40;99.90;;;;;;4935574;28;20061;-71
2023/09/22 01:25:19;;;;;;;27.65;20.00;;;14.40;99.90;;;;;;4915715;28;200178;-72
2023/09/22 01:27:45;;;;;;;30.88;20.40;;;14.40;99.90;;;;;;4932716;28;20055;-72
2023/09/22 01:30:11;;;;;;;29.60;19.75;;;14.40;99.90;;;;;;4901616;28;245974;-72
2023/09/22 01:32:37;;;;;;;33.22;22.33;;;14.40;99.90;;;;;;4920738;28;20406;-72
2023/09/22 01:35:07;;;;;;;28.38;20.02;;;14.40;99.90;;;;;;4927352;28;205368;-73
2023/09/22 01:37:41;;;;;;;29.15;20.90;;;14.40;99.90;;;;;;4938116;28;20146;-72
2023/09/22 01:40:08;;;;;;;30.27;20.33;;;14.40;99.90;;;;;;4935783;28;31530;-72
2023/09/22 01:42:34;;;;;;;30.63;20.60;;;14.40;99.90;;;;;;4935702;28;20055;-72
2023/09/22 01:45:01;;;;;;;33.63;22.55;;;14.40;99.90;;;;;;4905185;28;182055;-72
2023/09/22 01:47:27;;;;;;;31.45;21.63;;;14.30;99.90;;;;;;4949583;28;20055;-71
2023/09/22 01:49:54;;;;;;;29.55;21.42;;;14.30;99.90;;;;;;4919059;28;168763;-72
2023/09/22 01:52:20;;;;;;;30.83;21.70;;;14.30;99.90;;;;;;4944893;28;20051;-72
2023/09/22 01:54:46;;;;;;;33.35;21.50;;;14.30;99.90;;;;;;4890104;28;233848;-72
2023/09/22 01:57:13;;;;;;;31.17;21.90;;;14.30;99.90;;;;;;4945854;28;20059;-72
2023/09/22 01:59:39;;;;;;;34.33;21.98;;;14.30;99.90;;;;;;4903535;28;166667;-72
2023/09/22 02:02:05;;;;;;;29.98;22.33;;;14.30;99.90;;;;;;4950250;28;20066;-71
2023/09/22 02:04:32;;;;;;;29.27;21.45;;;14.20;99.90;;;;;;4904561;28;70340;-73
2023/09/22 02:06:58;;;;;;;29.88;21.25;;;14.20;99.90;;;;;;4950707;28;20050;-71
2023/09/22 02:09:24;;;;;;;30.27;22.35;;;14.20;99.90;;;;;;4904026;28;219650;-72
2023/09/22 02:11:50;;;;;;;34.17;22.15;;;14.30;99.90;;;;;;4953445;28;20051;-72
2023/09/22 02:14:16;;;;;;;31.10;22.17;;;14.30;99.90;;;;;;4904846;28;60587;-72
2023/09/22 02:16:42;;;;;;;32.28;21.95;;;14.30;99.90;;;;;;4941617;28;20059;-72
2023/09/22 02:19:08;;;;;;;29.45;21.92;;;14.30;99.90;;;;;;4905275;28;30228;-73
2023/09/22 02:21:34;;;;;;;31.02;22.92;;;14.30;99.90;;;;;;4949068;28;20051;-72
2023/09/22 02:24:01;;;;;;;28.58;20.98;;;14.20;99.90;;;;;;4918085;28;20062;-72
2023/09/22 02:26:27;;;;;;;29.50;21.05;;;14.20;99.90;;;;;;4949203;28;20051;-72
2023/09/22 02:28:53;;;;;;;32.53;22.65;;;14.20;99.90;;;;;;4905274;28;176079;-71
2023/09/22 02:31:20;;;;;;;34.53;22.63;;;14.20;99.90;;;;;;4953014;28;20508;-71
2023/09/22 02:33:48;;;;;;;32.88;23.15;;;14.20;99.90;;;;;;4907540;28;20615;-71
2023/09/22 02:36:16;;;;;;;32.65;22.80;;;14.20;99.90;;;;;;4949447;28;20066;-72
2023/09/22 02:38:43;;;;;;;30.27;22.50;;;14.20;99.90;;;;;;4912037;28;148403;-72
2023/09/22 02:41:11;;;;;;;32.25;22.70;;;14.20;99.90;;;;;;4956868;28;20058;-71
2023/09/22 02:43:38;;;;;;;31.15;21.58;;;14.30;99.90;;;;;;4907754;28;257210;-73
2023/09/22 02:46:04;;;;;;;31.67;21.83;;;14.30;99.90;;;;;;4954461;28;20047;-72
2023/09/22 02:48:30;;;;;;;30.92;21.77;;;14.20;99.90;;;;;;4905309;28;170223;-72
2023/09/22 02:50:56;;;;;;;31.73;20.52;;;14.20;99.90;;;;;;4957791;28;20063;-73
2023/09/22 02:53:22;;;;;;;32.13;20.63;;;14.20;99.90;;;;;;4898824;28;113249;-72
2023/09/22 02:55:48;;;;;;;30.27;20.33;;;14.20;99.90;;;;;;4942472;28;20063;-72
2023/09/22 02:58:15;;;;;;;29.02;19.85;;;14.20;99.90;;;;;;4919733;28;228569;-72
2023/09/22 03:00:44;;;;;;;28.60;19.52;;;14.20;99.90;;;;;;4957564;28;20062;-72
2023/09/22 03:03:12;;;;;;;26.73;17.98;;;14.20;99.90;;;;;;4903745;28;240991;-72
2023/09/22 03:05:39;;;;;;;25.08;17.85;;;14.20;99.90;;;;;;4955926;28;20433;-72
2023/09/22 03:08:05;;;;;;;26.60;18.05;;;14.10;99.90;;;;;;4910587;28;85524;-72
2023/09/22 03:10:32;;;;;;;30.13;18.85;;;14.10;99.90;;;;;;4959099;28;20527;-74
2023/09/22 03:12:58;;;;;;;28.63;19.13;;;14.10;99.90;;;;;;4912340;28;223913;-69
2023/09/22 03:15:24;;;;;;;30.67;18.75;;;14.20;99.90;;;;;;4944517;28;20066;-73
2023/09/22 03:17:51;;;;;;;28.42;18.48;;;14.10;99.90;;;;;;4934291;28;20083;-72
2023/09/22 03:20:17;;;;;;;30.13;18.50;;;14.10;99.90;;;;;;4942754;28;90109;-72
2023/09/22 03:22:44;;;;;;;28.60;19.13;;;14.10;99.90;;;;;;4903272;28;274735;-72
2023/09/22 03:25:11;;;;;;;27.73;18.45;;;14.10;99.90;;;;;;4959805;28;20058;-71
2023/09/22 03:27:37;;;;;;;28.45;18.75;;;14.00;99.90;;;;;;4921576;28;20425;-70
2023/09/22 03:30:06;;;;;;;31.65;18.75;;;14.00;99.90;;;;;;4946448;28;219977;-72
2023/09/22 03:32:32;;;;;;;29.35;19.88;;;14.00;99.90;;;;;;4953313;28;20055;-73
2023/09/22 03:35:05;;;;;;;28.75;18.13;;;13.90;99.90;;;;;;4916807;28;34132;-73
2023/09/22 03:37:32;;;;;;;27.85;17.80;;;14.00;99.90;;;;;;4942576;28;20063;-72
2023/09/22 03:39:58;;;;;;;29.65;18.45;;;14.00;99.90;;;;;;4914095;28;137528;-73
2023/09/22 03:42:25;;;;;;;30.45;18.55;;;13.90;99.90;;;;;;4944309;28;20047;-72
2023/09/22 03:44:51;;;;;;;30.48;18.63;;;13.90;99.90;;;;;;4908954;28;190665;-71
2023/09/22 03:47:17;;;;;;;31.83;18.10;;;13.90;99.90;;;;;;4944010;28;20059;-72
2023/09/22 03:49:43;;;;;;;31.35;18.02;;;14.00;99.90;;;;;;4896862;28;20060;-73
2023/09/22 03:52:09;;;;;;;27.08;16.65;;;13.90;99.90;;;;;;4945420;28;20524;-72
2023/09/22 03:54:36;;;;;;;29.02;17.33;;;13.90;99.90;;;;;;4899384;28;140837;-71
2023/09/22 03:57:02;;;;;;;28.75;18.05;;;13.90;99.90;;;;;;4965340;28;20051;-70
2023/09/22 03:59:29;;;;;;;31.80;19.35;;;13.90;99.90;;;;;;4924098;28;63371;-71
2023/09/22 04:01:55;;;;;;;29.45;18.75;;;13.90;99.90;;;;;;4945113;28;20502;-71
2023/09/22 04:04:21;;;;;;;34.35;20.30;;;14.00;99.90;;;;;;4922452;28;102177;-72
2023/09/22 04:06:47;;;;;;;34.83;20.90;;;13.90;99.90;;;;;;4946560;28;20062;-71
2023/09/22 04:09:13;;;;;;;36.50;21.75;;;13.90;99.90;;;;;;4918964;28;146653;-71
2023/09/22 04:11:39;;;;;;;36.70;21.23;;;13.90;99.90;;;;;;4948507;28;20415;-71
2023/09/22 04:14:06;;;;;;;28.52;18.38;;;13.90;99.90;;;;;;4899374;28;20059;-71
2023/09/22 04:16:32;;;;;;;32.55;18.88;;;13.90;99.90;;;;;;4952118;28;20054;-72
2023/09/22 04:18:58;;;;;;;29.65;18.08;;;13.80;99.90;;;;;;4919990;28;74087;-72
2023/09/22 04:21:24;;;;;;;30.85;18.65;;;13.90;99.90;;;;;;4948704;28;20382;-72
2023/09/22 04:23:57;;;;;;;29.65;18.60;;;13.80;99.90;;;;;;4912359;28;218673;-72
2023/09/22 04:26:29;;;;;;;33.33;18.20;;;13.80;99.90;;;;;;4946934;28;20504;-72
2023/09/22 04:28:56;;;;;;;30.77;19.17;;;13.80;99.90;;;;;;4901415;28;115756;-69
2023/09/22 04:31:24;;;;;;;34.70;20.65;;;13.70;99.90;;;;;;4945553;28;20051;-71
2023/09/22 04:33:52;;;;;;;34.85;21.05;;;13.70;99.90;;;;;;4907410;28;104916;-71
2023/09/22 04:36:22;;;;;;;34.58;21.48;;;13.70;99.90;;;;;;4949804;28;20071;-70
2023/09/22 04:38:50;;;;;;;35.67;22.02;;;13.70;99.90;;;;;;4909183;28;140775;-72
2023/09/22 04:41:20;;;;;;;37.05;22.77;;;13.70;99.90;;;;;;4944954;29;20524;-71
2023/09/22 04:43:46;;;;;;;36.60;22.02;;;13.70;99.90;;;;;;4915758;28;20655;-70
2023/09/22 04:46:13;;;;;;;38.55;22.67;;;13.70;99.90;;;;;;4938842;28;20494;-71
2023/09/22 04:48:39;;;;;;;38.08;22.55;;;13.60;99.90;;;;;;4892334;28;45961;-71
2023/09/22 04:51:06;;;;;;;37.45;24.08;;;13.70;99.90;;;;;;4945289;28;20051;-70
2023/09/22 04:53:32;;;;;;;39.83;22.73;;;13.60;99.90;;;;;;4893838;28;128687;-70
2023/09/22 04:56:00;;;;;;;37.80;23.23;;;13.60;99.90;;;;;;4945806;28;20051;-71
2023/09/22 04:58:26;;;;;;;37.17;23.98;;;13.60;99.90;;;;;;4923760;28;57284;-71
2023/09/22 05:00:54;;;;;;;40.92;24.33;;;13.60;99.90;;;;;;4955922;28;20055;-70
2023/09/22 05:03:20;;;;;;;34.72;22.30;;;13.50;99.90;;;;;;4909600;28;123155;-71
2023/09/22 05:05:46;;;;;;;36.47;24.17;;;13.50;99.90;;;;;;4927470;28;20051;-71
2023/09/22 05:08:12;;;;;;;37.35;22.67;;;13.40;99.90;;;;;;4906095;28;198493;-71
2023/09/22 05:10:38;;;;;;;35.72;23.08;;;13.30;99.90;;;;;;4962778;28;20055;-72
2023/09/22 05:13:05;;;;;;;39.03;24.67;;;13.20;99.90;;;;;;4908969;28;225876;-71
2023/09/22 05:15:31;;;;;;;41.15;24.33;;;13.20;99.90;;;;;;4962619;28;20062;-71
2023/09/22 05:17:57;;;;;;;39.25;24.55;;;13.20;99.90;;;;;;4923591;28;20054;-71
2023/09/22 05:20:24;;;;;;;36.70;24.52;;;13.20;99.90;;;;;;4941665;28;272499;-70
2023/09/22 05:22:50;;;;;;;41.00;26.00;;;13.20;99.90;;;;;;4920867;28;20047;-71
2023/09/22 05:25:16;;;;;;;45.00;25.98;;;13.10;99.90;;;;;;4914575;28;178372;-72
2023/09/22 05:27:45;;;;;;;41.70;25.58;;;13.10;99.90;;;;;;4936320;28;20055;-71
2023/09/22 05:30:13;;;;;;;44.10;26.27;;;13.10;99.90;;;;;;4931646;28;56470;-70
2023/09/22 05:32:39;;;;;;;45.75;26.30;;;13.10;99.90;;;;;;4919789;28;20074;-70
2023/09/22 05:35:05;;;;;;;43.47;25.70;;;13.10;99.90;;;;;;4944232;28;105987;-71
2023/09/22 05:37:31;;;;;;;46.33;27.35;;;13.10;99.90;;;;;;4947212;28;20074;-70
2023/09/22 05:39:57;;;;;;;46.28;27.23;;;13.10;99.90;;;;;;4913252;28;27212;-71
2023/09/22 05:42:23;;;;;;;48.63;28.77;;;13.10;99.90;;;;;;4950888;28;20062;-71
2023/09/22 05:44:50;;;;;;;47.92;28.13;;;13.10;99.90;;;;;;4927714;28;35595;-71
2023/09/22 05:47:16;;;;;;;50.05;28.92;;;13.10;99.90;;;;;;4963595;28;20078;-71
2023/09/22 05:49:42;;;;;;;46.53;28.33;;;13.10;99.90;;;;;;4918380;28;91419;-71
2023/09/22 05:52:08;;;;;;;48.22;28.42;;;13.20;99.90;;;;;;4949167;28;20047;-71
2023/09/22 05:54:34;;;;;;;49.03;29.17;;;13.20;99.90;;;;;;4877773;28;114294;-71
2023/09/22 05:57:00;;;;;;;47.78;28.52;;;13.20;99.90;;;;;;4944055;28;20054;-72
2023/09/22 05:59:28;;;;;;;43.85;28.40;;;13.20;99.90;;;;;;4903629;28;59764;-71
2023/09/22 06:01:55;;;;;;;46.22;28.95;;;13.20;99.90;;;;;;4950104;28;20051;-72
2023/09/22 06:04:21;;;;;;;44.90;27.45;;;13.20;99.90;;;;;;4917583;28;208582;-68
2023/09/22 06:06:47;;;;;;;45.15;26.80;;;13.20;99.90;;;;;;4946598;28;20050;-70
2023/09/22 06:09:14;;;;;;;37.10;23.35;;;13.20;99.90;;;;;;4900058;28;231710;-71
2023/09/22 06:11:41;;;;;;;44.17;25.95;;;13.20;99.90;;;;;;4941781;28;20055;-71
2023/09/22 06:14:07;;;;;;;39.92;25.63;;;13.20;99.90;;;;;;4919413;28;57029;-71
2023/09/22 06:16:33;;;;;;;40.85;25.13;;;13.30;99.90;;;;;;4952763;28;20048;-71
2023/09/22 06:19:00;;;;;;;37.47;23.23;;;13.30;99.90;;;;;;4922168;28;47223;-71
2023/09/22 06:21:27;;;;;;;41.45;25.45;;;13.20;99.90;;;;;;4953281;28;20047;-70
2023/09/22 06:23:53;;;;;;;37.40;24.17;;;13.30;99.90;;;;;;4903486;28;116566;-70
2023/09/22 06:26:19;;;;;;;37.63;22.90;;;13.30;99.90;;;;;;4945354;28;20055;-70
2023/09/22 06:28:45;;;;;;;35.97;22.80;;;13.30;99.90;;;;;;4918317;28;80366;-71
2023/09/22 06:31:12;;;;;;;36.35;22.20;;;13.30;99.90;;;;;;4954425;28;20054;-71
2023/09/22 06:33:38;;;;;;;31.55;20.17;;;13.30;99.90;;;;;;4918093;28;39018;-71
2023/09/22 06:36:05;;;;;;;35.03;20.52;;;13.30;99.90;;;;;;4954478;28;20506;-70
2023/09/22 06:38:33;;;;;;;33.80;21.02;;;13.30;99.90;;;;;;4913721;28;131481;-71
2023/09/22 06:41:05;;;;;;;33.08;20.80;;;13.30;99.90;;;;;;4956913;28;20120;-73
2023/09/22 06:43:33;;;;;;;33.10;19.98;;;13.40;99.90;;;;;;4905769;28;178378;-70
2023/09/22 06:46:03;;;;;;;33.53;19.73;;;13.40;99.90;;;;;;4956641;28;20055;-70
2023/09/22 06:48:30;;;;;;;32.60;19.80;;;13.40;99.90;;;;;;4914938;28;64540;-70
2023/09/22 06:50:58;;;;;;;31.77;19.60;;;13.50;99.90;;;;;;4954728;28;20062;-71
2023/09/22 06:53:26;;;;;;;31.92;19.50;;;13.50;99.90;;;;;;4898990;28;140068;-70
2023/09/22 06:56:11;;;;;;;30.50;18.85;;;13.50;99.90;;;;;;4944438;28;20062;-70
2023/09/22 06:58:40;;;;;;;28.70;16.23;;;13.60;99.90;;;;;;4918376;28;20042;-70
2023/09/22 07:01:09;;;;;;;27.25;17.75;;;13.60;99.90;;;;;;4944952;28;20782;-71
2023/09/22 07:03:37;;;;;;;29.83;17.88;;;13.60;99.90;;;;;;4911719;28;57578;-70
2023/09/22 07:06:06;;;;;;;27.17;17.05;;;13.70;99.90;;;;;;4952708;28;20060;-70
2023/09/22 07:08:32;;;;;;;25.63;15.82;;;13.60;99.90;;;;;;4904847;28;148541;-71
2023/09/22 07:11:02;;;;;;;29.95;17.80;;;13.60;99.90;;;;;;4953645;28;20047;-70
2023/09/22 07:13:29;;;;;;;30.58;18.65;;;13.60;99.90;;;;;;4903520;28;62818;-70
2023/09/22 07:15:57;;;;;;;25.90;17.30;;;13.60;99.90;;;;;;4938878;28;20067;-70
2023/09/22 07:18:24;;;;;;;27.65;17.85;;;13.70;99.90;;;;;;4909331;28;113371;-70
2023/09/22 07:20:51;;;;;;;27.90;17.40;;;13.70;99.90;;;;;;4949765;28;20812;-71
2023/09/22 07:23:18;;;;;;;29.40;18.50;;;13.70;99.90;;;;;;4908795;28;33579;-69
2023/09/22 07:25:45;;;;;;;26.50;17.88;;;13.70;99.90;;;;;;4952763;28;20059;-70
2023/09/22 07:28:11;;;;;;;28.40;17.65;;;13.70;99.90;;;;;;4901435;28;172322;-70
2023/09/22 07:30:37;;;;;;;28.38;17.63;;;13.80;99.90;;;;;;4954365;28;20497;-70
2023/09/22 07:33:04;;;;;;;25.25;16.23;;;13.80;99.90;;;;;;4903836;28;188619;-69
2023/09/22 07:35:30;;;;;;;24.45;15.68;;;13.80;99.90;;;;;;4944533;28;20474;-68
2023/09/22 07:37:56;;;;;;;23.35;14.75;;;13.80;99.90;;;;;;4905567;28;90402;-70
2023/09/22 07:40:22;;;;;;;23.73;14.82;;;13.70;99.90;;;;;;4955845;28;20063;-71
2023/09/22 07:42:48;;;;;;;24.08;14.50;;;13.80;99.90;;;;;;4899800;28;217150;-70
2023/09/22 07:45:14;;;;;;;22.40;15.15;;;13.80;99.90;;;;;;4955042;28;20055;-70
2023/09/22 07:47:40;;;;;;;24.30;14.50;;;13.90;99.90;;;;;;4916189;28;20062;-70
2023/09/22 07:50:06;;;;;;;23.60;14.10;;;13.90;99.90;;;;;;4933462;28;20062;-69
2023/09/22 07:52:34;;;;;;;21.35;12.75;;;14.00;99.90;;;;;;4936158;28;20063;-69
2023/09/22 07:55:01;;;;;;;21.45;12.50;;;13.90;99.90;;;;;;4898159;28;149983;-70
2023/09/22 07:57:31;;;;;;;21.35;12.02;;;13.90;99.90;;;;;;4945979;28;20071;-69
2023/09/22 07:59:57;;;;;;;20.67;12.47;;;13.90;99.90;;;;;;4906298;28;164192;-70
2023/09/22 08:02:24;;;;;;;21.90;12.02;;;14.10;99.90;;;;;;4943208;28;20062;-70
2023/09/22 08:04:50;;;;;;;19.55;11.43;;;14.20;99.90;;;;;;4913751;28;243841;-71
2023/09/22 08:07:16;;;;;;;18.40;11.20;;;14.20;99.90;;;;;;4944504;28;20058;-70
2023/09/22 08:09:42;;;;;;;16.90;10.15;;;14.20;99.90;;;;;;4918638;28;103235;-69
2023/09/22 08:12:09;;;;;;;19.02;10.13;;;14.20;99.90;;;;;;4943625;28;20046;-72
2023/09/22 08:14:36;;;;;;;16.55;10.30;;;14.30;99.90;;;;;;4899502;28;273249;-71
2023/09/22 08:17:06;;;;;;;17.25;9.88;;;14.30;99.90;;;;;;4943863;28;20102;-70
2023/09/22 08:19:32;;;;;;;19.95;10.23;;;14.40;99.90;;;;;;4883898;28;254787;-69
2023/09/22 08:21:59;;;;;;;18.05;9.80;;;14.40;99.90;;;;;;4958157;28;20058;-69
2023/09/22 08:24:25;;;;;;;17.52;8.95;;;14.50;99.90;;;;;;4912822;28;202386;-69
2023/09/22 08:26:51;;;;;;;16.42;8.68;;;14.60;99.90;;;;;;4945997;28;20079;-68
2023/09/22 08:29:18;;;;;;;13.82;7.72;;;14.60;99.90;;;;;;4913636;28;124304;-70
2023/09/22 08:31:44;;;;;;;16.35;8.40;;;14.70;99.90;;;;;;4948095;28;20068;-69
2023/09/22 08:34:11;;;;;;;13.30;7.70;;;14.90;99.90;;;;;;4918706;28;25319;-69
2023/09/22 08:36:37;;;;;;;16.20;6.32;;;15.00;99.90;;;;;;4945988;28;20051;-69
2023/09/22 08:39:03;;;;;;;14.55;6.60;;;15.10;99.90;;;;;;4910941;28;20063;-69
2023/09/22 08:41:32;;;;;;;13.30;5.53;;;15.10;99.90;;;;;;4948371;28;20058;-70
2023/09/22 08:43:59;;;;;;;13.20;6.03;;;15.00;99.90;;;;;;4901214;28;52863;-71
2023/09/22 08:46:25;;;;;;;15.35;5.88;;;15.00;99.90;;;;;;4938857;28;20047;-69
2023/09/22 08:48:52;;;;;;;13.80;5.90;;;15.10;99.90;;;;;;4911748;28;20475;-70
2023/09/22 08:51:18;;;;;;;13.65;5.22;;;15.30;99.90;;;;;;4948850;28;20051;-70
2023/09/22 08:53:44;;;;;;;11.20;4.60;;;16.50;99.90;;;;;;4887098;28;154389;-69
2023/09/22 08:56:11;;;;;;;9.02;3.70;;;17.30;99.90;;;;;;4942750;28;20498;-69
2023/09/22 08:58:37;;;;;;;8.20;2.90;;;17.90;99.90;;;;;;4913070;28;154251;-70
2023/09/22 09:01:03;;;;;;;9.57;2.50;;;18.40;99.90;;;;;;4939017;28;20490;-69
2023/09/22 09:03:31;;;;;;;9.65;2.58;;;18.70;99.90;;;;;;4915102;28;20046;-68
2023/09/22 09:06:08;;;;;;;8.88;2.55;;;18.80;99.90;;;;;;4957016;28;20059;-70
2023/09/22 09:08:34;;;;;;;8.32;2.80;;;19.00;99.90;;;;;;4922944;28;117006;-69
2023/09/22 09:11:10;;;;;;;13.38;2.75;;;19.00;99.90;;;;;;4955613;28;20501;-70
2023/09/22 09:13:37;;;;;;;8.60;2.60;;;18.50;99.90;;;;;;4908410;28;20078;-70
2023/09/22 09:16:08;;;;;;;9.30;2.38;;;18.40;99.90;;;;;;4939140;28;20059;-69
2023/09/22 09:18:34;;;;;;;6.90;1.80;;;19.50;99.90;;;;;;4909132;28;149565;-69
2023/09/22 09:21:10;;;;;;;7.25;1.90;;;19.80;99.90;;;;;;4946858;28;20298;-69
2023/09/22 09:23:37;;;;;;;9.48;2.20;;;20.50;99.90;;;;;;4914678;28;53166;-68
2023/09/22 09:26:04;;;;;;;7.25;1.92;;;20.60;99.90;;;;;;4956688;28;20058;-69
2023/09/22 09:28:30;;;;;;;7.97;1.95;;;20.10;99.90;;;;;;4908429;28;87162;-70
2023/09/22 09:30:58;;;;;;;9.88;2.00;;;20.40;99.80;;;;;;4952966;28;20059;-70
2023/09/22 09:33:32;;;;;;;8.38;1.77;;;20.60;99.90;;;;;;4911264;28;148605;-70
2023/09/22 09:35:59;;;;;;;6.45;1.63;;;21.00;99.90;;;;;;4957004;28;20055;-71
2023/09/22 09:38:27;;;;;;;8.65;1.60;;;21.60;99.10;;;;;;4908334;28;35736;-70
2023/09/22 09:40:57;;;;;;;6.78;1.80;;;21.70;99.90;;;;;;4931188;28;20426;-69
2023/09/22 09:43:23;;;;;;;5.30;1.33;;;21.60;98.40;;;;;;4907206;28;205785;-69
2023/09/22 09:45:52;;;;;;;6.03;1.50;;;21.10;97.30;;;;;;4955019;28;20059;-70
2023/09/22 09:48:19;;;;;;;6.47;1.50;;;20.70;97.90;;;;;;4901905;28;254789;-71
2023/09/22 09:50:47;;;;;;;6.32;1.52;;;20.90;98.80;;;;;;4954503;28;20051;-69
2023/09/22 09:53:31;;;;;;;7.93;1.88;;;21.20;97.40;;;;;;4892278;28;231748;-70
2023/09/22 09:56:03;;;;;;;8.30;1.75;;;21.70;97.50;;;;;;4946884;28;20066;-69
2023/09/22 09:58:32;;;;;;;8.32;1.58;;;21.00;97.50;;;;;;4900846;28;190027;-69
2023/09/22 10:01:00;;;;;;;9.00;1.65;;;20.90;99.20;;;;;;4951560;28;20085;-69
2023/09/22 10:03:28;;;;;;;7.47;1.30;;;21.10;97.50;;;;;;4901105;28;218341;-70
2023/09/22 10:05:55;;;;;;;5.72;1.38;;;20.80;98.40;;;;;;4949306;28;20059;-70
2023/09/22 10:08:24;;;;;;;6.68;1.30;;;19.70;98.50;;;;;;4914865;28;54993;-70
2023/09/22 10:10:59;;;;;;;5.55;1.30;;;19.20;98.20;;;;;;4955567;28;20062;-70
2023/09/22 10:13:27;;;;;;;5.80;1.40;;;18.60;99.50;;;;;;4907437;28;193424;-70
2023/09/22 10:16:03;;;;;;;6.50;1.40;;;19.70;99.20;;;;;;4957833;28;20054;-70
2023/09/22 10:18:52;;;;;;;7.07;1.35;;;20.70;98.90;;;;;;4907999;28;234596;-70
2023/09/22 10:21:38;;;;;;;5.82;1.30;;;21.70;96.80;;;;;;4953247;28;20058;-70
2023/09/22 10:24:25;;;;;;;4.72;1.20;;;22.20;95.40;;;;;;4905042;28;125717;-70
2023/09/22 10:26:54;;;;;;;5.70;1.30;;;22.30;94.40;;;;;;4944219;28;20074;-69
2023/09/22 10:29:32;;;;;;;9.10;1.45;;;21.70;96.30;;;;;;4913810;28;169916;-68
2023/09/22 10:35:06;;;;;;;7.85;1.20;;;21.30;95.90;;;;;;4893857;28;29103;-69
2023/09/22 10:37:35;;;;;;;7.43;1.50;;;21.80;96.20;;;;;;4939246;28;20067;-69
2023/09/22 10:40:13;;;;;;;6.50;1.30;;;21.10;97.50;;;;;;4915947;28;20066;-69
2023/09/22 10:42:43;;;;;;;5.60;1.40;;;21.00;96.70;;;;;;4915954;28;20059;-68
2023/09/22 10:45:10;;;;;;;6.22;1.30;;;20.10;97.80;;;;;;4931965;28;20074;-69
2023/09/22 10:47:37;;;;;;;7.60;1.48;;;19.00;98.50;;;;;;4921157;28;20086;-68
2023/09/22 10:50:13;;;;;;;6.45;1.40;;;18.50;99.40;;;;;;4950261;28;40480;-70
2023/09/22 10:52:48;;;;;;;6.28;1.40;;;18.70;98.60;;;;;;4919628;28;20069;-70
2023/09/22 10:55:42;;;;;;;7.78;1.60;;;19.10;98.90;;;;;;4931840;28;193871;-67
2023/09/22 10:58:16;;;;;;;4.93;1.35;;;19.20;98.80;;;;;;4905494;28;104357;-69
2023/09/22 11:01:04;;;;;;;5.80;1.30;;;18.50;98.80;;;;;;4950371;28;20051;-70
2023/09/22 11:03:38;;;;;;;6.97;1.35;;;18.30;99.50;;;;;;4908455;28;237262;-69
2023/09/22 11:06:10;;;;;;;6.05;1.48;;;18.00;99.80;;;;;;4952686;28;20055;-70
2023/09/22 11:08:49;;;;;;;4.82;1.33;;;18.20;98.90;;;;;;4916150;28;33353;-69
2023/09/22 11:11:16;;;;;;;4.60;1.40;;;18.10;99.20;;;;;;4951366;28;20059;-71
2023/09/22 11:13:53;;;;;;;7.47;1.50;;;17.80;99.40;;;;;;4913159;28;119752;-70
2023/09/22 11:16:20;;;;;;;6.10;1.50;;;17.80;99.80;;;;;;4951877;28;20134;-70
2023/09/22 11:18:48;;;;;;;5.35;1.50;;;17.50;99.80;;;;;;4915510;28;118888;-69
2023/09/22 11:21:14;;;;;;;6.15;1.40;;;17.50;99.90;;;;;;4953858;28;20055;-69
2023/09/22 11:23:41;;;;;;;6.10;1.50;;;17.80;99.90;;;;;;4905797;28;220500;-70
2023/09/22 11:26:10;;;;;;;6.65;1.45;;;18.80;99.40;;;;;;4954368;28;20051;-69
2023/09/22 11:28:43;;;;;;;5.38;1.48;;;19.10;97.70;;;;;;4904907;28;110073;-69
2023/09/22 11:31:14;;;;;;;6.57;1.35;;;19.50;97.60;;;;;;4951687;28;20403;-70
2023/09/22 11:33:41;;;;;;;5.07;1.30;;;20.20;97.40;;;;;;4917392;28;241135;-72
2023/09/22 11:36:11;;;;;;;5.15;1.25;;;20.70;97.20;;;;;;4953924;28;20054;-71
2023/09/22 11:38:45;;;;;;;6.03;1.45;;;19.90;96.50;;;;;;4913581;28;127549;-70
2023/09/22 11:41:16;;;;;;;5.63;1.40;;;19.20;97.20;;;;;;4943076;28;20047;-72
2023/09/22 11:43:43;;;;;;;7.10;1.40;;;18.70;98.30;;;;;;4912200;28;179596;-70
2023/09/22 11:46:15;;;;;;;7.50;1.42;;;18.40;98.60;;;;;;4946347;28;20058;-71
2023/09/22 11:49:06;;;;;;;5.30;1.35;;;18.40;98.80;;;;;;4916876;28;57238;-70
2023/09/22 11:51:56;;;;;;;5.97;1.30;;;18.40;99.00;;;;;;4948754;28;20059;-71
2023/09/22 11:54:28;;;;;;;5.75;1.35;;;18.50;99.20;;;;;;4892075;28;349742;-70
2023/09/22 11:56:57;;;;;;;5.60;1.40;;;18.60;99.20;;;;;;4942640;28;20051;-69
2023/09/22 11:59:29;;;;;;;4.88;1.40;;;18.60;99.20;;;;;;4880903;28;167610;-70
2023/09/22 12:01:56;;;;;;;4.65;1.40;;;18.50;99.20;;;;;;4960303;28;20051;-70
2023/09/22 12:04:22;;;;;;;8.30;1.40;;;18.20;99.70;;;;;;4905093;28;82445;-70
2023/09/22 12:06:49;;;;;;;5.40;1.27;;;18.00;99.90;;;;;;4947642;28;20054;-70
2023/09/22 12:09:16;;;;;;;4.68;1.30;;;17.70;99.90;;;;;;4909491;28;20066;-70
2023/09/22 12:11:43;;;;;;;5.65;1.38;;;17.60;99.90;;;;;;4950325;28;20070;-71
2023/09/22 12:14:11;;;;;;;5.78;1.30;;;17.60;99.90;;;;;;4912419;28;20054;-70
2023/09/22 12:16:38;;;;;;;5.65;1.40;;;17.50;99.90;;;;;;4946987;28;20059;-71
2023/09/22 12:19:05;;;;;;;4.72;1.30;;;17.60;99.90;;;;;;4907373;28;132436;-70
2023/09/22 12:21:32;;;;;;;4.65;1.30;;;17.60;99.90;;;;;;4954662;28;20054;-70
2023/09/22 12:23:59;;;;;;;6.45;1.63;;;17.50;99.90;;;;;;4917866;28;143833;-70
2023/09/22 12:26:25;;;;;;;6.95;1.50;;;17.50;99.90;;;;;;4951466;28;20066;-70
2023/09/22 12:28:52;;;;;;;6.80;1.30;;;17.60;99.90;;;;;;4910603;28;104249;-70
2023/09/22 12:31:18;;;;;;;6.05;1.40;;;17.50;99.90;;;;;;4948542;28;20421;-70
2023/09/22 12:33:45;;;;;;;6.22;1.42;;;17.60;99.90;;;;;;4917083;28;109436;-70
2023/09/22 12:36:15;;;;;;;4.18;1.20;;;17.70;99.90;;;;;;4956665;28;20062;-70
2023/09/22 12:38:41;;;;;;;5.28;1.30;;;17.90;99.90;;;;;;4911480;28;228202;-70